Wednesday, November 14, 2018, 8:59 PM EST
Back to Local

KGTB, Fort Drum / Wheeler-sack U. S. Army Airfield

Location: Fort Drum, NY, United States Lat: 44.05
Local Time: 8:59 PM EST ( 1:59 GMT) Lon: -75.733
Time Zone: US/Eastern Elev: 679 ft

Show me the last for .
Show Decoded

2018-11-14 19:56 METAR KGTB 150056Z AUTO 05008KT 10SM CLR M08/M14 A3054 RMK AO2 SLP356 T10801136
                 $ =
2018-11-14 18:56 METAR KGTB 142356Z AUTO 00000KT 10SM CLR M08/M14 A3053 RMK AO2 SLP352 T10821136
                 11035 21082 52015 $ =
2018-11-14 17:56 METAR KGTB 142256Z AUTO 00000KT 10SM CLR M06/M15 A3051 RMK AO2 SLP344 T10631148
                 $ =
2018-11-14 16:56 METAR KGTB 142156Z AUTO 31003KT 10SM CLR M05/M15 A3049 RMK AO2 SLP338 T10521150
                 $ =
2018-11-14 15:56 METAR KGTB 142056Z AUTO 30006KT 10SM CLR M04/M15 A3048 RMK AO2 SLP333 T10381149
                 $ =
2018-11-14 14:56 METAR KGTB 141956Z 29007KT 10SM CLR M04/M15 A3047 RMK AO2A SLP330 T10371154
                 RVRNO $ =
2018-11-14 13:56 METAR KGTB 141856Z 31008G17KT 10SM CLR M04/M15 A3046 RMK AO2A SLP326 T10381152
                 RVRNO $ =
2018-11-14 12:56 METAR KGTB 141756Z 30012G21KT 10SM CLR M04/M17 A3045 RMK SLPNO 11044 21076 RVRNO
                 $ =
2018-11-14 11:56 METAR KGTB 141656Z 33009KT 10SM CLR M05/M15 A3044 RMK SLPNO 11057 21076 RVRNO $
                 =
2018-11-14 10:56 METAR KGTB 141556Z AUTO 31007G16KT 10SM CLR M06/M15 A3044 RMK AO2 SLP320
                 T10571152 $ =
2018-11-14 09:56 METAR KGTB 141456Z COR AUTO 30009G18KT 10SM FEW075 M07/M16 A3042 RMK AO2 SLP313
                 T10661158 52032 CHINO RWY03 $ COR 1506 =
2018-11-14 08:56 METAR KGTB 141356Z AUTO 31008G19KT 10SM CLR M07/M15 A3039 RMK AO2 SLP303
                 T10721152 =
2018-11-14 07:56 METAR KGTB 141256Z AUTO 29008KT 10SM BKN070 M07/M15 A3036 RMK AO2 SLP293
                 T10751148 =
2018-11-14 06:56 METAR KGTB 141156Z AUTO 28008G14KT 10SM OVC065 M07/M15 A3032 RMK AO2 SLP279
                 60000 70009 T10721150 11036 21072 52035 =
2018-11-14 05:56 METAR KGTB 141056Z AUTO 28009KT 10SM OVC070 M06/M15 A3028 RMK AO2 SLP265
                 T10651148 =
2018-11-14 04:56 METAR KGTB 140956Z AUTO 28008KT 10SM SCT065 M06/M15 A3024 RMK AO2 SLP251
                 T10631148 =
2018-11-14 03:56 METAR KGTB 140856Z AUTO 29009G17KT 10SM OVC065 M05/M12 A3021 RMK AO2 PK WND
                 30029/36 SLP240 60000 T10471122 52031 =
2018-11-14 02:56 METAR KGTB 140756Z AUTO 28011G18KT 10SM FEW031 BKN060 M04/M07 A3017 RMK AO2
                 SLP226 T10381073 =
2018-11-14 01:56 METAR KGTB 140656Z AUTO 29008KT 10SM FEW025 BKN049 M04/M06 A3014 RMK AO2 SNE0559
                 SLP215 P0000 T10361059 =
2018-11-14 01:49 METAR KGTB 140649Z AUTO 30005KT 10SM SCT026 OVC047 M04/M06 A3013 RMK AO2 SNE0559
                 SLP212 =
2018-11-14 01:09 METAR KGTB 140609Z AUTO 29005KT 10SM FEW019 BKN029 BKN035 M04/M05 A3012 RMK AO2
                 SNE0559 CIG 027 RWY03 SLPNO =
2018-11-14 00:59 METAR KGTB 140559Z AUTO 28004KT 10SM SCT023 BKN030 BKN035 M04/M05 A3012 RMK AO2
                 SNE59 SLPNO =
2018-11-14 00:56 METAR KGTB 140556Z COR 26004KT 10SM -SN SCT023 BKN030 BKN035 M04/M04 A3012 RMK
                 AO2 SNE0456UPB0456E0459SNB0459E13SNB22E43SNB48 SLPNO P0000 60000 4/001 T10401044
                 11027 21045 53004 COR 0620 =
2018-11-14 00:48 METAR KGTB 140548Z AUTO 28003KT 10SM -SN SCT025 BKN032 M04/M04 A3012 RMK AO2
                 SNE0456UPB0456E0459SNB0459E13SNB22E43SNB48 SLPNO =
2018-11-14 00:43 METAR KGTB 140543Z AUTO 00000KT 10SM SCT024 OVC033 M04/M04 A3012 RMK AO2
                 SNE0456UPB0456E0459SNB0459E13SNB22E43 SLPNO =
2018-11-14 00:22 METAR KGTB 140522Z AUTO 00000KT 10SM -SN SCT016 SCT024 BKN033 M04/M04 A3011 RMK
                 AO2 SNE0456UPB0456E0459SNB0459E13SNB22 SLPNO =
2018-11-14 00:13 METAR KGTB 140513Z AUTO 00000KT 10SM FEW010 SCT024 BKN030 BKN035 M04/M04 A3011
                 RMK AO2 SNE0456UPB0456E0459SNB0459E13 SLPNO =
2018-11-13 23:56 METAR KGTB 140456Z 00000KT 10SM -SN FEW014 FEW034 BKN043 M04/M04 A3011 RMK AO2A
                 SNE0356SNB0356E04SNB12E24SNB53 SLPNO P0000 4/001 T10441045 400351045 =
2018-11-13 23:53 METAR KGTB 140453Z 00000KT 10SM -SN FEW034 SCT043 M04/M04 A3012 RMK AO2A
                 SNE0356SNB0356E04SNB12E24UPB53 SLPNO =
2018-11-13 23:24 METAR KGTB 140424Z 00000KT 10SM BKN035 BKN046 OVC075 M04/M04 A3011 RMK AO2A
                 SNE0356SNB0356E04SNB12E24 SLPNO =
2018-11-13 23:12 METAR KGTB 140412Z 00000KT 10SM -SN BKN035 OVC047 M04/M04 A3010 RMK AO2A
                 SNE0356SNB0356E04SNB12 SLPNO =
2018-11-13 23:04 METAR KGTB 140404Z 05003KT 10SM OVC035 M04/M04 A3010 RMK AO2A SNE0356SNB0356E04
                 SLPNO =
2018-11-13 22:56 METAR KGTB 140356Z 05005KT 10SM -SN BKN036 BKN044 OVC055 M04/M04 A3010 RMK AO2A
                 UPB50 SLPNO P0000 T10401041 =
2018-11-13 22:50 METAR KGTB 140350Z AUTO 03004KT 10SM -UP BKN036 BKN044 BKN055 M04/M04 A3010 RMK
                 AO2 UPB50 SLPNO =
2018-11-13 21:56 METAR KGTB 140256Z AUTO 00000KT 10SM SCT042 SCT050 M04/M06 A3011 RMK AO2 SLPNO
                 T10391056 51012 =

Support USWX by starting your Amazon purchase here.